createdAt,value
2023-02-14T00:00:23.824Z,4.75
2023-02-14T00:01:12.597Z,4.74
2023-02-14T00:01:51.327Z,4.76
2023-02-14T00:02:32.286Z,4.78
2023-02-14T00:03:53.052Z,4.63
2023-02-14T00:04:57.271Z,4.65
2023-02-14T00:06:57.302Z,4.69
2023-02-14T00:07:45.087Z,4.73
2023-02-14T00:08:27.838Z,4.73
2023-02-14T00:09:08.601Z,4.77
2023-02-14T00:09:47.701Z,4.76
2023-02-14T00:10:26.746Z,4.76
2023-02-14T00:11:05.820Z,4.77
2023-02-14T00:11:45.681Z,4.78
2023-02-14T00:12:26.026Z,4.78
2023-02-14T00:14:03.706Z,4.73
2023-02-14T00:15:05.325Z,4.72
2023-02-14T00:16:24.104Z,4.78
2023-02-14T00:17:03.560Z,4.80
2023-02-14T00:17:45.813Z,4.84
2023-02-14T00:18:49.020Z,4.79
2023-02-14T00:20:08.658Z,4.86
2023-02-14T00:20:48.809Z,4.90
2023-02-14T00:22:08.065Z,4.80
2023-02-14T00:23:24.771Z,4.85
2023-02-14T00:24:14.851Z,4.86
2023-02-14T00:24:53.778Z,4.86
2023-02-14T00:25:34.329Z,4.83
2023-02-14T00:26:21.522Z,4.86
2023-02-14T00:27:00.951Z,4.83
2023-02-14T00:27:42.734Z,4.82
2023-02-14T00:28:21.781Z,4.76
2023-02-14T00:29:01.754Z,4.77
2023-02-14T00:29:41.805Z,4.77
2023-02-14T00:30:20.737Z,4.79
2023-02-14T00:31:24.519Z,4.73
2023-02-14T00:32:04.104Z,4.75
2023-02-14T00:32:44.765Z,4.77
2023-02-14T00:33:23.773Z,4.79
2023-02-14T00:34:11.270Z,4.71
2023-02-14T00:34:50.706Z,4.79
2023-02-14T00:35:29.722Z,4.84
2023-02-14T00:36:11.194Z,4.81
2023-02-14T00:36:53.983Z,4.77
2023-02-14T00:37:33.432Z,4.78
2023-02-14T00:38:12.766Z,4.82
2023-02-14T00:38:53.010Z,4.86
2023-02-14T00:39:41.566Z,4.84
2023-02-14T00:40:20.795Z,4.82
2023-02-14T00:41:07.597Z,4.83
2023-02-14T00:41:47.424Z,4.83
2023-02-14T00:42:26.689Z,4.86
2023-02-14T00:43:08.744Z,4.90
2023-02-14T00:43:53.537Z,4.91
2023-02-14T00:44:32.806Z,4.91
2023-02-14T00:45:14.916Z,4.90
2023-02-14T00:45:53.805Z,4.92
2023-02-14T00:46:33.438Z,4.92
2023-02-14T00:47:12.792Z,4.90
2023-02-14T00:47:54.827Z,4.91
2023-02-14T00:48:42.924Z,4.88
2023-02-14T00:49:22.731Z,4.88
2023-02-14T00:50:03.089Z,4.82
2023-02-14T00:50:46.319Z,4.75
2023-02-14T00:51:33.645Z,4.75
2023-02-14T00:52:15.860Z,4.72
2023-02-14T00:52:54.792Z,4.74
2023-02-14T00:53:34.236Z,4.71
2023-02-14T00:54:23.834Z,4.71
2023-02-14T00:55:02.780Z,4.69
2023-02-14T00:55:41.745Z,4.59
2023-02-14T00:56:21.547Z,4.63
2023-02-14T00:57:00.775Z,4.59
2023-02-14T00:58:13.238Z,4.57
2023-02-14T00:59:34.176Z,4.59
2023-02-14T01:00:15.656Z,4.57
2023-02-14T01:00:54.977Z,4.58
2023-02-14T01:01:34.810Z,4.59
2023-02-14T01:02:13.953Z,4.60
2023-02-14T01:02:53.961Z,4.55
2023-02-14T01:03:35.018Z,4.44
2023-02-14T01:04:16.119Z,4.43
2023-02-14T01:05:05.805Z,4.51
2023-02-14T01:05:47.625Z,4.52
2023-02-14T01:06:27.011Z,4.54
2023-02-14T01:07:06.796Z,4.49
2023-02-14T01:07:53.596Z,4.47
2023-02-14T01:08:40.662Z,4.35
2023-02-14T01:09:27.918Z,4.37
2023-02-14T01:10:07.886Z,4.38
2023-02-14T01:10:48.115Z,4.39
2023-02-14T01:12:06.973Z,4.21
2023-02-14T01:12:44.760Z,4.22
2023-02-14T01:13:24.067Z,4.26
2023-02-14T01:14:05.775Z,4.29
2023-02-14T01:14:44.770Z,4.27
2023-02-14T01:15:31.991Z,4.22
2023-02-14T01:16:15.197Z,4.13
2023-02-14T01:16:54.852Z,4.14
2023-02-14T01:17:34.823Z,4.07
2023-02-14T01:18:15.283Z,3.99
2023-02-14T01:18:55.123Z,4.00
2023-02-14T01:19:36.824Z,3.98
2023-02-14T01:20:57.383Z,4.02
2023-02-14T01:21:36.491Z,4.02
2023-02-14T01:22:16.922Z,4.04
2023-02-14T01:22:59.505Z,3.99
2023-02-14T01:23:40.462Z,3.96
2023-02-14T01:24:22.798Z,3.90
2023-02-14T01:25:01.791Z,3.89
2023-02-14T01:25:50.604Z,3.85
2023-02-14T01:26:30.696Z,3.78
2023-02-14T01:27:12.740Z,3.79
2023-02-14T01:27:52.216Z,3.83
2023-02-14T01:28:36.339Z,3.81
2023-02-14T01:29:15.736Z,3.82
2023-02-14T01:29:56.233Z,3.74
2023-02-14T01:30:38.752Z,3.67
2023-02-14T01:31:25.745Z,3.70
2023-02-14T01:32:05.800Z,3.68
2023-02-14T01:32:45.117Z,3.71
2023-02-14T01:33:27.122Z,3.71
2023-02-14T01:34:08.230Z,3.67
2023-02-14T01:34:49.170Z,3.68
2023-02-14T01:35:30.581Z,3.67
2023-02-14T01:36:24.564Z,3.58
2023-02-14T01:37:05.053Z,3.50
2023-02-14T01:38:22.812Z,3.53
2023-02-14T01:39:05.990Z,3.51
2023-02-14T01:39:45.857Z,3.54
2023-02-14T01:40:25.812Z,3.58
2023-02-14T01:41:04.905Z,3.54
2023-02-14T01:41:48.556Z,3.54
2023-02-14T01:42:32.472Z,3.50
2023-02-14T01:43:17.888Z,3.53
2023-02-14T01:44:25.958Z,3.51
2023-02-14T01:45:53.667Z,3.53
2023-02-14T01:46:37.719Z,3.49
2023-02-14T01:47:18.936Z,3.50
2023-02-14T01:48:00.815Z,3.54
2023-02-14T01:48:39.779Z,3.50
2023-02-14T01:49:25.512Z,3.47
2023-02-14T01:50:14.865Z,3.52
2023-02-14T01:50:55.034Z,3.54
2023-02-14T01:51:34.850Z,3.54
2023-02-14T01:52:21.154Z,3.52
2023-02-14T01:53:06.432Z,3.55
2023-02-14T01:53:46.161Z,3.59
2023-02-14T01:54:29.604Z,3.57
2023-02-14T01:55:19.491Z,3.59
2023-02-14T01:56:09.986Z,3.53
2023-02-14T01:56:54.692Z,3.55
2023-02-14T01:57:56.943Z,3.61
2023-02-14T01:58:45.268Z,3.62
2023-02-14T01:59:30.951Z,3.59
2023-02-14T02:00:29.250Z,3.57
2023-02-14T02:01:22.733Z,3.55
2023-02-14T02:02:06.299Z,3.60
2023-02-14T02:04:42.490Z,3.62
2023-02-14T02:07:29.664Z,3.53
2023-02-14T02:08:25.873Z,3.56
2023-02-14T02:09:17.432Z,3.54
2023-02-14T02:10:37.433Z,3.52
2023-02-14T02:11:19.112Z,3.56
2023-02-14T02:15:12.744Z,3.57
2023-02-14T02:16:15.874Z,3.54
2023-02-14T02:17:34.737Z,3.64
2023-02-14T02:21:24.558Z,3.55
2023-02-14T02:22:42.154Z,3.57
2023-02-14T02:23:39.899Z,3.47
2023-02-14T02:25:02.073Z,3.55
2023-02-14T02:27:46.403Z,3.60
2023-02-14T02:29:52.107Z,3.56
2023-02-14T02:30:54.005Z,3.58
2023-02-14T02:32:26.016Z,3.60
2023-02-14T02:34:20.972Z,3.55
2023-02-14T02:36:47.696Z,3.47
2023-02-14T02:38:00.872Z,3.58
2023-02-14T02:42:03.292Z,3.54
2023-02-14T02:48:01.698Z,3.54
2023-02-14T02:52:02.444Z,3.51
2023-02-14T02:53:20.162Z,3.40
2023-02-14T02:54:20.926Z,3.38
2023-02-14T02:55:24.264Z,3.42
2023-02-14T02:57:23.435Z,3.46
2023-02-14T02:58:31.493Z,3.54
2023-02-14T03:00:15.146Z,3.47
2023-02-14T03:02:20.764Z,3.39
2023-02-14T03:04:19.629Z,3.38
2023-02-14T03:05:05.672Z,3.44
2023-02-14T03:05:48.628Z,3.47
2023-02-14T03:06:32.051Z,3.47
2023-02-14T03:07:35.213Z,3.49
2023-02-14T03:08:27.668Z,3.47
2023-02-14T03:11:58.665Z,3.53
2023-02-14T03:13:04.816Z,3.53
2023-02-14T03:14:10.475Z,3.53
2023-02-14T03:15:14.861Z,3.60
2023-02-14T03:17:04.956Z,3.62
2023-02-14T03:21:27.605Z,3.60
2023-02-14T03:22:31.008Z,3.57
2023-02-14T03:23:39.127Z,3.55
2023-02-14T03:25:29.987Z,3.61
2023-02-14T03:26:18.146Z,3.56
2023-02-14T03:27:15.562Z,3.65
2023-02-14T03:28:13.169Z,3.68
2023-02-14T03:29:01.951Z,3.54
2023-02-14T03:30:17.677Z,3.49
2023-02-14T03:33:26.558Z,3.68
2023-02-14T03:35:11.519Z,3.61
2023-02-14T03:37:06.066Z,3.67
2023-02-14T03:38:00.937Z,3.59
2023-02-14T03:39:01.538Z,3.64
2023-02-14T03:39:51.541Z,3.57
2023-02-14T03:40:54.891Z,3.56
2023-02-14T03:43:21.223Z,3.60
2023-02-14T03:45:34.171Z,3.62
2023-02-14T03:46:37.265Z,3.61
2023-02-14T03:49:15.602Z,3.62
2023-02-14T03:50:33.280Z,3.60
2023-02-14T03:51:16.275Z,3.66
2023-02-14T03:52:00.120Z,3.73
2023-02-14T03:52:53.795Z,3.74
2023-02-14T03:53:42.887Z,3.78
2023-02-14T03:54:27.464Z,3.75
2023-02-14T03:55:12.606Z,3.66
2023-02-14T03:56:32.532Z,3.73
2023-02-14T03:58:27.553Z,3.61
2023-02-14T03:59:09.644Z,3.66
2023-02-14T04:00:01.829Z,3.62
2023-02-14T04:00:58.072Z,3.71
2023-02-14T04:02:17.634Z,3.76
2023-02-14T04:04:05.916Z,3.75
2023-02-14T04:05:52.613Z,3.70
2023-02-14T04:07:15.066Z,3.63
2023-02-14T04:07:58.918Z,3.68
2023-02-14T04:08:54.831Z,3.61
2023-02-14T04:09:33.947Z,3.59
2023-02-14T04:10:37.567Z,3.58
2023-02-14T04:13:19.124Z,3.62
2023-02-14T04:15:30.887Z,3.56
2023-02-14T04:16:13.014Z,3.49
2023-02-14T04:17:34.563Z,3.60
2023-02-14T04:20:19.862Z,3.60
2023-02-14T04:21:25.054Z,3.57
2023-02-14T04:21:57.093Z,3.48
2023-02-14T04:22:29.062Z,3.51
2023-02-14T04:23:03.456Z,3.55
2023-02-14T04:23:36.526Z,3.56
2023-02-14T04:24:09.180Z,3.56
2023-02-14T04:24:41.404Z,3.53
2023-02-14T04:25:14.212Z,3.53
2023-02-14T04:27:50.800Z,3.62
2023-02-14T04:29:34.561Z,3.63
2023-02-14T04:32:01.001Z,3.62
2023-02-14T04:34:00.734Z,3.64
2023-02-14T04:34:48.029Z,3.70
2023-02-14T04:38:00.794Z,3.73
2023-02-14T04:38:52.776Z,3.78
2023-02-14T04:39:37.551Z,3.75
2023-02-14T04:41:41.532Z,3.81
2023-02-14T04:45:19.948Z,3.85
2023-02-14T04:46:23.423Z,3.85
2023-02-14T04:48:08.744Z,3.91
2023-02-14T04:51:19.758Z,3.88
2023-02-14T04:53:27.736Z,3.96
2023-02-14T04:54:45.263Z,4.02
2023-02-14T04:55:51.705Z,3.94
2023-02-14T04:56:55.224Z,4.00
2023-02-14T04:58:37.821Z,4.09
2023-02-14T04:59:45.778Z,4.09
2023-02-14T05:00:28.002Z,4.05
2023-02-14T05:01:31.797Z,4.03
2023-02-14T05:03:02.772Z,4.05
2023-02-14T05:07:36.835Z,4.16
2023-02-14T05:08:25.701Z,4.13
2023-02-14T05:09:07.922Z,4.09
2023-02-14T05:10:11.407Z,4.09
2023-02-14T05:12:21.991Z,4.13
2023-02-14T05:13:03.346Z,4.05
2023-02-14T05:14:07.521Z,4.14
2023-02-14T05:16:07.920Z,4.13
2023-02-14T05:17:03.806Z,4.16
2023-02-14T05:17:55.767Z,4.14
2023-02-14T05:18:27.675Z,4.20
2023-02-14T05:18:59.455Z,4.24
2023-02-14T05:22:21.156Z,4.30
2023-02-14T05:23:05.314Z,4.29
2023-02-14T05:23:46.510Z,4.22
2023-02-14T05:24:28.577Z,4.19
2023-02-14T05:25:10.964Z,4.27
2023-02-14T05:25:52.999Z,4.24
2023-02-14T05:26:42.939Z,4.28
2023-02-14T05:27:28.953Z,4.30
2023-02-14T05:28:07.928Z,4.24
2023-02-14T05:28:59.656Z,4.29
2023-02-14T05:29:41.842Z,4.33
2023-02-14T05:30:51.810Z,4.30
2023-02-14T05:33:04.099Z,4.27
2023-02-14T05:33:56.796Z,4.28
2023-02-14T05:34:38.891Z,4.26
2023-02-14T05:35:20.816Z,4.26
2023-02-14T05:36:24.343Z,4.27
2023-02-14T05:39:38.725Z,4.23
2023-02-14T05:42:18.730Z,4.26
2023-02-14T05:44:28.740Z,4.13
2023-02-14T05:45:32.189Z,4.17
2023-02-14T05:47:32.919Z,4.22
2023-02-14T05:48:15.420Z,4.23
2023-02-14T05:48:48.038Z,4.25
2023-02-14T05:49:19.866Z,4.21
2023-02-14T05:49:51.582Z,4.21
2023-02-14T05:50:23.387Z,4.25
2023-02-14T05:53:42.678Z,4.30
2023-02-14T05:55:26.320Z,4.35
2023-02-14T05:56:15.776Z,4.34
2023-02-14T05:57:08.868Z,4.23
2023-02-14T05:57:55.849Z,4.27
2023-02-14T05:58:59.631Z,4.27
2023-02-14T06:00:54.313Z,4.33
2023-02-14T06:01:46.822Z,4.30
2023-02-14T06:02:35.810Z,4.34
2023-02-14T06:03:39.232Z,4.35
2023-02-14T06:07:05.461Z,4.31
2023-02-14T06:08:04.078Z,4.35
2023-02-14T06:10:44.581Z,4.35
2023-02-14T06:11:24.270Z,4.30
2023-02-14T06:15:11.646Z,4.30
2023-02-14T06:16:05.009Z,4.33
2023-02-14T06:17:09.146Z,4.38
2023-02-14T06:22:55.775Z,4.40
2023-02-14T06:25:19.152Z,4.50
2023-02-14T06:27:02.590Z,4.51
2023-02-14T06:29:30.275Z,4.38
2023-02-14T06:31:41.313Z,4.47
2023-02-14T06:32:20.064Z,4.53
2023-02-14T06:33:06.953Z,4.57
2023-02-14T06:34:10.303Z,4.65
2023-02-14T06:35:29.930Z,4.65
2023-02-14T06:36:24.036Z,4.70
2023-02-14T06:37:28.060Z,4.70
2023-02-14T06:39:51.692Z,4.78
2023-02-14T06:40:55.623Z,4.80
2023-02-14T06:43:52.762Z,4.67
2023-02-14T06:44:35.183Z,4.73
2023-02-14T06:46:47.973Z,4.78
2023-02-14T06:47:29.130Z,4.78
2023-02-14T06:53:12.944Z,4.66
2023-02-14T06:53:53.568Z,4.72
2023-02-14T06:54:36.024Z,4.74
2023-02-14T06:55:16.357Z,4.71
2023-02-14T06:56:08.948Z,4.74
2023-02-14T06:57:01.898Z,4.77
2023-02-14T06:58:19.615Z,4.81
2023-02-14T06:59:23.917Z,4.74
2023-02-14T07:00:43.561Z,4.79
2023-02-14T07:04:26.747Z,4.84
2023-02-14T07:08:09.618Z,4.95
2023-02-14T07:09:30.287Z,4.94
2023-02-14T07:10:11.392Z,4.92
2023-02-14T07:12:26.049Z,4.99
2023-02-14T07:13:14.789Z,4.95
2023-02-14T07:14:19.790Z,4.99
2023-02-14T07:16:01.957Z,4.94
2023-02-14T07:18:47.768Z,5.04
2023-02-14T07:19:30.262Z,5.03
2023-02-14T07:20:02.163Z,5.03
2023-02-14T07:26:53.669Z,5.13
2023-02-14T07:29:03.973Z,4.92
2023-02-14T07:35:30.090Z,5.01
2023-02-14T07:37:00.594Z,5.14
2023-02-14T07:37:42.472Z,5.11
2023-02-14T07:38:53.269Z,5.22
2023-02-14T07:39:32.591Z,5.22
2023-02-14T07:40:15.108Z,5.10
2023-02-14T07:40:54.982Z,5.10
2023-02-14T07:41:27.144Z,5.13
2023-02-14T07:41:59.120Z,5.14
2023-02-14T07:42:30.872Z,5.20
2023-02-14T07:43:02.737Z,5.25
2023-02-14T07:44:29.904Z,5.29
2023-02-14T07:45:20.735Z,5.35
2023-02-14T07:46:02.703Z,5.39
2023-02-14T07:47:35.071Z,5.35
2023-02-14T07:48:17.084Z,5.40
2023-02-14T07:48:57.132Z,5.32
2023-02-14T07:49:49.312Z,5.37
2023-02-14T07:50:56.679Z,5.41
2023-02-14T07:51:36.525Z,5.40
2023-02-14T07:52:19.137Z,5.30
2023-02-14T07:53:00.940Z,5.18
2023-02-14T07:53:43.240Z,5.25
2023-02-14T07:54:23.571Z,5.35
2023-02-14T07:55:02.980Z,5.38
2023-02-14T07:55:49.888Z,5.37
2023-02-14T07:56:30.525Z,5.42
2023-02-14T07:57:11.370Z,5.49
2023-02-14T07:58:14.773Z,5.54
2023-02-14T07:58:57.317Z,5.60
2023-02-14T07:59:59.814Z,5.49
2023-02-14T08:08:49.694Z,5.62
2023-02-14T08:10:02.063Z,5.57
2023-02-14T08:13:23.566Z,5.70
2023-02-14T08:14:05.990Z,5.60
2023-02-14T08:16:00.792Z,5.65
2023-02-14T08:19:41.812Z,5.71
2023-02-14T08:20:23.705Z,5.62
2023-02-14T08:21:08.361Z,5.74
2023-02-14T08:21:48.144Z,5.80
2023-02-14T08:22:51.390Z,5.70
2023-02-14T08:24:21.851Z,5.74
2023-02-14T08:25:01.026Z,5.79
2023-02-14T08:25:48.437Z,5.74
2023-02-14T08:26:28.019Z,5.78
2023-02-14T08:27:09.956Z,5.79
2023-02-14T08:27:42.714Z,5.78
2023-02-14T08:28:25.722Z,5.85
2023-02-14T08:29:07.947Z,5.77
2023-02-14T08:30:12.049Z,5.77
2023-02-14T08:31:36.343Z,5.88
2023-02-14T08:33:43.487Z,5.88
2023-02-14T08:34:26.009Z,5.94
2023-02-14T08:35:09.180Z,5.95
2023-02-14T08:37:18.827Z,5.95
2023-02-14T08:38:06.040Z,5.97
2023-02-14T08:38:48.632Z,5.90
2023-02-14T08:39:40.880Z,5.93
2023-02-14T08:40:37.517Z,5.91
2023-02-14T08:43:17.527Z,6.08
2023-02-14T08:45:18.094Z,6.24
2023-02-14T08:46:37.430Z,6.20
2023-02-14T08:48:45.129Z,6.25
2023-02-14T08:49:26.935Z,6.19
2023-02-14T08:50:10.343Z,6.21
2023-02-14T08:51:00.107Z,6.25
2023-02-14T08:51:40.116Z,6.21
2023-02-14T08:52:19.039Z,6.14
2023-02-14T08:53:12.017Z,6.17
2023-02-14T08:54:57.187Z,6.33
2023-02-14T08:55:40.352Z,6.16
2023-02-14T08:56:23.170Z,6.07
2023-02-14T08:57:05.042Z,6.05
2023-02-14T08:57:58.357Z,6.18
2023-02-14T08:59:02.506Z,6.09
2023-02-14T09:01:19.015Z,6.21
2023-02-14T09:03:09.573Z,6.18
2023-02-14T09:03:57.341Z,6.15
2023-02-14T09:05:01.419Z,6.23
2023-02-14T09:06:21.996Z,6.27
2023-02-14T09:07:00.970Z,6.31
2023-02-14T09:07:47.946Z,6.46
2023-02-14T09:08:51.788Z,6.34
2023-02-14T09:09:34.132Z,6.50
2023-02-14T09:10:13.300Z,6.53
2023-02-14T09:10:55.998Z,6.56
2023-02-14T09:11:41.890Z,6.56
2023-02-14T09:12:23.974Z,6.54
2023-02-14T09:13:07.429Z,6.52
2023-02-14T09:14:35.965Z,6.34
2023-02-14T09:15:19.775Z,6.41
2023-02-14T09:15:59.503Z,6.38
2023-02-14T09:16:42.058Z,6.47
2023-02-14T09:17:22.127Z,6.46
2023-02-14T09:18:04.145Z,6.42
2023-02-14T09:19:11.729Z,6.50
2023-02-14T09:20:16.261Z,6.63
2023-02-14T09:21:43.810Z,6.35
2023-02-14T09:22:15.692Z,6.47
2023-02-14T09:23:57.891Z,6.68
2023-02-14T09:26:06.098Z,6.70
2023-02-14T09:27:27.757Z,6.76
2023-02-14T09:28:31.606Z,6.84
2023-02-14T09:29:16.011Z,6.88
2023-02-14T09:30:19.339Z,6.89
2023-02-14T09:31:43.990Z,6.73
2023-02-14T09:32:27.320Z,6.73
2023-02-14T09:33:08.129Z,6.75
2023-02-14T09:33:48.632Z,6.77
2023-02-14T09:34:27.723Z,6.81
2023-02-14T09:35:27.102Z,6.88
2023-02-14T09:36:20.825Z,6.80
2023-02-14T09:37:43.549Z,6.92
2023-02-14T09:39:18.727Z,7.04
2023-02-14T09:40:14.955Z,7.13
2023-02-14T09:41:05.901Z,6.98
2023-02-14T09:42:01.306Z,6.66
2023-02-14T09:43:05.176Z,6.75
2023-02-14T09:44:13.522Z,6.98
2023-02-14T09:44:52.712Z,7.03
2023-02-14T09:45:36.534Z,7.13
2023-02-14T09:47:59.465Z,7.20
2023-02-14T09:49:37.476Z,7.34
2023-02-14T09:51:11.387Z,7.44
2023-02-14T09:52:01.294Z,7.56
2023-02-14T09:53:35.749Z,7.39
2023-02-14T09:54:26.545Z,7.53
2023-02-14T09:55:06.807Z,7.40
2023-02-14T09:55:46.071Z,7.30
2023-02-14T09:56:54.248Z,7.32
2023-02-14T10:03:06.860Z,7.65
2023-02-14T10:04:18.706Z,7.69
2023-02-14T10:07:41.590Z,7.80
2023-02-14T10:08:40.534Z,7.71
2023-02-14T10:09:59.781Z,7.75
2023-02-14T10:10:42.402Z,7.71
2023-02-14T10:11:22.839Z,7.71
2023-02-14T10:12:05.851Z,7.68
2023-02-14T10:13:03.176Z,7.71
2023-02-14T10:14:27.675Z,7.66
2023-02-14T10:16:27.218Z,7.88
2023-02-14T10:17:35.029Z,7.87
2023-02-14T10:19:38.455Z,7.95
2023-02-14T10:20:37.776Z,8.03
2023-02-14T10:21:38.422Z,7.99
2023-02-14T10:22:46.446Z,7.85
2023-02-14T10:25:46.634Z,7.96
2023-02-14T10:28:24.036Z,7.99
2023-02-14T10:29:07.352Z,8.08
2023-02-14T10:29:47.124Z,8.11
2023-02-14T10:30:56.932Z,8.02
2023-02-14T10:32:37.773Z,7.91
2023-02-14T10:37:03.867Z,7.68
2023-02-14T10:39:01.848Z,7.40
2023-02-14T10:39:55.907Z,7.57
2023-02-14T10:41:08.507Z,7.55
2023-02-14T10:42:19.478Z,7.56
2023-02-14T10:44:22.782Z,7.51
2023-02-14T10:46:31.002Z,7.63
2023-02-14T10:47:31.681Z,7.56
2023-02-14T10:48:35.825Z,7.43
2023-02-14T10:50:49.805Z,7.52
2023-02-14T10:51:53.040Z,7.40
2023-02-14T10:53:15.013Z,7.54
2023-02-14T10:53:57.718Z,7.58
2023-02-14T10:54:56.032Z,7.53
2023-02-14T10:56:43.870Z,7.50
2023-02-14T10:59:24.900Z,7.37
2023-02-14T11:00:33.006Z,7.53
2023-02-14T11:01:15.601Z,7.62
2023-02-14T11:01:58.615Z,7.59
2023-02-14T11:02:47.058Z,7.67
2023-02-14T11:03:29.522Z,7.63
2023-02-14T11:04:57.600Z,7.78
2023-02-14T11:05:50.332Z,7.78
2023-02-14T11:06:33.858Z,7.71
2023-02-14T11:07:38.600Z,7.72
2023-02-14T11:09:18.906Z,7.50
2023-02-14T11:10:41.025Z,6.83
2023-02-14T11:11:50.560Z,6.78
2023-02-14T11:14:41.762Z,7.22
2023-02-14T11:15:32.723Z,6.86
2023-02-14T11:17:31.214Z,7.10
2023-02-14T11:18:50.828Z,7.26
2023-02-14T11:19:37.133Z,7.33
2023-02-14T11:21:06.944Z,7.38
2023-02-14T11:21:53.518Z,7.38
2023-02-14T11:22:36.129Z,7.47
2023-02-14T11:23:24.982Z,7.49
2023-02-14T11:24:30.612Z,7.41
2023-02-14T11:27:37.887Z,7.53
2023-02-14T11:28:21.503Z,7.45
2023-02-14T11:29:17.309Z,7.44
2023-02-14T11:30:21.178Z,7.33
2023-02-14T11:31:11.008Z,7.58
2023-02-14T11:32:37.678Z,7.30
2023-02-14T11:33:34.181Z,7.12
2023-02-14T11:34:36.957Z,6.91
2023-02-14T11:36:47.445Z,6.88
2023-02-14T11:37:37.235Z,7.00
2023-02-14T11:38:31.166Z,7.19
2023-02-14T11:39:24.459Z,7.31
2023-02-14T11:40:26.491Z,7.43
2023-02-14T11:41:15.100Z,7.51
2023-02-14T11:41:58.284Z,7.55
2023-02-14T11:42:44.215Z,7.57
2023-02-14T11:43:40.117Z,7.66
2023-02-14T11:44:23.561Z,7.72
2023-02-14T11:45:05.454Z,7.65
2023-02-14T11:45:49.173Z,7.59
2023-02-14T11:46:38.492Z,7.72
2023-02-14T11:47:30.875Z,7.76
2023-02-14T11:48:13.153Z,7.68
2023-02-14T11:49:02.570Z,7.72
2023-02-14T11:49:58.577Z,7.80
2023-02-14T11:51:05.544Z,7.75
2023-02-14T11:53:04.569Z,7.63
2023-02-14T11:55:29.688Z,7.70
2023-02-14T11:56:11.118Z,7.65
2023-02-14T11:57:15.526Z,7.55
2023-02-14T11:59:29.419Z,7.63
2023-02-14T12:00:25.369Z,7.55
2023-02-14T12:01:29.053Z,7.55
2023-02-14T12:02:29.825Z,7.61
2023-02-14T12:03:19.785Z,7.50
2023-02-14T12:05:07.099Z,7.18
2023-02-14T12:05:49.231Z,6.99
2023-02-14T12:06:36.763Z,6.87
2023-02-14T12:07:31.864Z,7.16
2023-02-14T12:08:25.058Z,7.01
2023-02-14T12:09:13.084Z,7.11
2023-02-14T12:10:13.383Z,7.23
2023-02-14T12:10:54.140Z,7.15
2023-02-14T12:11:36.163Z,7.11
2023-02-14T12:12:39.486Z,7.07
2023-02-14T12:13:27.326Z,6.88
2023-02-14T12:14:22.985Z,7.06
2023-02-14T12:15:26.772Z,7.21
2023-02-14T12:17:22.060Z,7.19
2023-02-14T12:20:24.001Z,7.02
2023-02-14T12:21:24.521Z,7.12
2023-02-14T12:22:17.904Z,7.10
2023-02-14T12:23:18.855Z,7.09
2023-02-14T12:24:13.581Z,6.77
2023-02-14T12:24:58.735Z,6.84
2023-02-14T12:25:48.908Z,7.01
2023-02-14T12:27:06.106Z,7.09
2023-02-14T12:28:31.051Z,6.98
2023-02-14T12:29:21.090Z,7.01
2023-02-14T12:30:12.129Z,7.07
2023-02-14T12:30:54.424Z,7.09
2023-02-14T12:34:13.863Z,6.74
2023-02-14T12:35:07.525Z,6.65
2023-02-14T12:35:53.116Z,6.67
2023-02-14T12:38:11.042Z,6.71
2023-02-14T12:39:17.625Z,6.92
2023-02-14T12:41:37.884Z,6.64
2023-02-14T12:43:50.912Z,6.73
2023-02-14T12:45:16.057Z,6.67
2023-02-14T12:46:19.994Z,6.59
2023-02-14T12:48:00.991Z,6.64
2023-02-14T12:49:17.713Z,6.69
2023-02-14T12:50:27.689Z,6.62
2023-02-14T12:51:46.918Z,6.45
2023-02-14T12:52:35.800Z,6.36
2023-02-14T12:54:08.255Z,6.47
2023-02-14T12:55:12.971Z,6.35
2023-02-14T12:56:19.303Z,6.51
2023-02-14T12:57:29.273Z,6.52
2023-02-14T13:02:04.170Z,6.63
2023-02-14T13:04:09.984Z,6.85
2023-02-14T13:06:35.357Z,7.00
2023-02-14T13:08:04.108Z,7.14
2023-02-14T13:09:05.000Z,7.11
2023-02-14T13:09:52.959Z,7.16
2023-02-14T13:10:49.057Z,7.18
2023-02-14T13:11:44.797Z,7.16
2023-02-14T13:12:42.665Z,7.17
2023-02-14T13:13:53.627Z,7.20
2023-02-14T13:15:17.222Z,7.28
2023-02-14T13:16:33.514Z,7.36
2023-02-14T13:18:12.036Z,7.44
2023-02-14T13:20:48.856Z,7.50
2023-02-14T13:21:38.082Z,7.57
2023-02-14T13:22:22.899Z,7.58
2023-02-14T13:24:20.287Z,7.63
2023-02-14T13:26:06.507Z,7.69
2023-02-14T13:27:28.909Z,7.66
2023-02-14T13:30:19.231Z,7.62
2023-02-14T13:31:49.675Z,7.72
2023-02-14T13:32:42.394Z,7.64
2023-02-14T13:34:12.016Z,7.53
2023-02-14T13:34:53.022Z,7.60
2023-02-14T13:35:34.575Z,7.66
2023-02-14T13:36:28.622Z,7.66
2023-02-14T13:37:33.358Z,7.67
2023-02-14T13:39:07.106Z,7.71
2023-02-14T13:40:18.972Z,7.78
2023-02-14T13:42:58.746Z,7.81
2023-02-14T13:44:05.523Z,7.73
2023-02-14T13:45:36.803Z,7.84
2023-02-14T13:47:37.510Z,7.79
2023-02-14T13:49:27.039Z,7.91
2023-02-14T13:50:21.545Z,7.80
2023-02-14T13:51:07.105Z,7.67
2023-02-14T13:51:58.003Z,7.74
2023-02-14T13:52:47.257Z,7.75
2023-02-14T13:53:37.048Z,7.81
2023-02-14T13:54:22.471Z,7.90
2023-02-14T13:56:18.989Z,7.93
2023-02-14T13:57:26.838Z,7.84
2023-02-14T13:58:18.130Z,7.88
2023-02-14T13:59:27.177Z,7.91
2023-02-14T14:00:20.398Z,7.89
2023-02-14T14:01:25.693Z,8.00
2023-02-14T14:02:31.068Z,7.78
2023-02-14T14:03:53.939Z,7.77
2023-02-14T14:05:46.328Z,7.92
2023-02-14T14:06:31.248Z,8.02
2023-02-14T14:07:14.042Z,8.00
2023-02-14T14:08:20.416Z,8.01
2023-02-14T14:09:00.535Z,8.06
2023-02-14T14:09:43.118Z,8.05
2023-02-14T14:10:46.020Z,8.01
2023-02-14T14:12:30.914Z,8.01
2023-02-14T14:13:59.448Z,7.95
2023-02-14T14:14:40.919Z,7.93
2023-02-14T14:15:20.646Z,8.01
2023-02-14T14:16:27.713Z,7.92
2023-02-14T14:18:12.931Z,7.92
2023-02-14T14:19:58.127Z,7.80
2023-02-14T14:21:35.360Z,7.87
2023-02-14T14:22:15.468Z,7.86
2023-02-14T14:23:28.577Z,7.55
2023-02-14T14:25:51.409Z,7.74
2023-02-14T14:26:31.738Z,7.74
2023-02-14T14:27:40.661Z,7.69
2023-02-14T14:28:59.098Z,7.63
2023-02-14T14:29:57.358Z,7.65
2023-02-14T14:30:44.904Z,7.77
2023-02-14T14:31:25.405Z,7.74
2023-02-14T14:32:11.794Z,7.78
2023-02-14T14:33:15.766Z,7.81
2023-02-14T14:34:01.260Z,7.78
2023-02-14T14:35:32.017Z,7.83
2023-02-14T14:36:22.490Z,7.84
2023-02-14T14:37:08.410Z,7.88
2023-02-14T14:37:52.395Z,7.86
2023-02-14T14:38:45.484Z,7.90
2023-02-14T14:39:31.006Z,7.90
2023-02-14T14:40:31.602Z,7.87
2023-02-14T14:41:18.246Z,7.91
2023-02-14T14:43:39.518Z,7.83
2023-02-14T14:44:21.829Z,7.78
2023-02-14T14:47:02.099Z,7.65
2023-02-14T14:48:33.070Z,7.58
2023-02-14T14:49:39.912Z,7.60
2023-02-14T14:50:30.551Z,7.61
2023-02-14T14:51:24.682Z,7.67
2023-02-14T14:52:44.244Z,7.62
2023-02-14T14:53:32.231Z,7.59
2023-02-14T14:54:20.380Z,7.54
2023-02-14T14:55:05.731Z,7.54
2023-02-14T14:55:52.073Z,7.40
2023-02-14T14:56:37.211Z,7.51
2023-02-14T14:57:26.248Z,7.30
2023-02-14T14:58:29.899Z,7.32
2023-02-14T14:59:17.235Z,7.35
2023-02-14T15:00:56.191Z,7.45
2023-02-14T15:01:38.336Z,7.49
2023-02-14T15:02:26.785Z,7.43
2023-02-14T15:03:15.843Z,7.36
2023-02-14T15:04:12.070Z,7.39
2023-02-14T15:04:56.155Z,7.37
2023-02-14T15:05:47.956Z,7.29
2023-02-14T15:07:18.216Z,7.27
2023-02-14T15:07:57.960Z,7.33
2023-02-14T15:08:38.217Z,7.32
2023-02-14T15:09:35.612Z,7.27
2023-02-14T15:10:37.006Z,7.21
2023-02-14T15:12:21.713Z,7.21
2023-02-14T15:13:25.771Z,7.25
2023-02-14T15:15:48.198Z,7.22
2023-02-14T15:17:19.716Z,7.02
2023-02-14T15:18:07.849Z,7.07
2023-02-14T15:18:53.490Z,7.13
2023-02-14T15:19:48.034Z,7.09
2023-02-14T15:20:31.302Z,7.09
2023-02-14T15:21:49.920Z,7.12
2023-02-14T15:22:41.853Z,7.13
2023-02-14T15:24:15.218Z,7.14
2023-02-14T15:24:54.603Z,7.15
2023-02-14T15:25:46.710Z,7.04
2023-02-14T15:26:26.148Z,7.08
2023-02-14T15:27:19.009Z,7.07
2023-02-14T15:27:57.887Z,7.06
2023-02-14T15:29:04.008Z,6.99
2023-02-14T15:30:55.287Z,6.98
2023-02-14T15:32:23.888Z,7.00
2023-02-14T15:33:08.150Z,7.04
2023-02-14T15:33:48.739Z,7.00
2023-02-14T15:34:32.599Z,7.00
2023-02-14T15:35:29.163Z,6.92
2023-02-14T15:36:18.146Z,6.83
2023-02-14T15:37:06.929Z,6.83
2023-02-14T15:37:55.618Z,6.86
2023-02-14T15:38:44.180Z,6.84
2023-02-14T15:39:49.207Z,6.83
2023-02-14T15:40:31.916Z,6.91
2023-02-14T15:41:36.120Z,6.84
2023-02-14T15:42:59.180Z,6.91
2023-02-14T15:44:24.100Z,6.65
2023-02-14T15:45:43.242Z,6.68
2023-02-14T15:46:39.525Z,6.67
2023-02-14T15:48:12.982Z,6.81
2023-02-14T15:48:55.843Z,6.84
2023-02-14T15:49:35.133Z,6.86
2023-02-14T15:50:25.372Z,6.80
2023-02-14T15:51:06.529Z,6.80
2023-02-14T15:51:45.777Z,6.83
2023-02-14T15:52:26.202Z,6.84
2023-02-14T15:53:36.261Z,6.84
2023-02-14T15:54:38.523Z,6.84
2023-02-14T15:55:22.891Z,6.89
2023-02-14T15:56:29.733Z,6.89
2023-02-14T15:58:15.851Z,6.83
2023-02-14T16:01:04.393Z,6.80
2023-02-14T16:01:52.764Z,6.83
2023-02-14T16:02:31.870Z,6.82
2023-02-14T16:03:27.669Z,6.79